Terminal Aerodrome Forecast
Issued by NWS

Home | Current Version | Previous Version | Text Only | Print | Product List | Glossary On
Versions: 1 2 3 4 5 6 7 8 9 10 11 12 13
000
FTUS45 KPSR 251728
TAFBLH
TAF
KBLH 251728Z 2518/2618 19010KT P6SM FEW250
     FM251900 20018G28KT P6SM FEW070 SCT120
     FM252200 25026G34KT 6SM BLDU FEW070 SCT120
     FM260400 26020G28KT P6SM VCSH FEW070 SCT120
     FM261000 30010KT P6SM FEW250=

USA.gov is the U.S. government's official web portal to all federal, state and local government web resources and services.